Perla, Arkansas
Current Conditions -  °F | °C
As of 3:53 PM on Friday 19 Dec 2014 (Local Time) from KHOT Reporting Station
Haze Haze  
Wind Chill:   Ceiling: 700
Heat Index:   Visibility: 5mi
Dew Point:   Wind: 5mph
Humidity: 92%   Direction: 40°NE
Pressure: 30.19"   Gusts: NA
Location:  34.3189°N, 92.8629°W
Report Text: KHOT 192153Z AUTO 04004KT 5SM BR OVC007 06/04 A3019 RMK AO2 SLP225 T00560044
Loading
Personal Weather Stations






























Interactive Weather Map New forecast layout! Learn more

10-Day Weather Forecast

Advertisements
Track Severe Weather on mobile